createdAt,value
2019-03-31T00:00:34.170Z,9.70
2019-03-31T00:03:03.600Z,9.70
2019-03-31T00:05:33.088Z,9.60
2019-03-31T00:08:02.483Z,9.60
2019-03-31T00:10:31.861Z,9.50
2019-03-31T00:13:01.290Z,9.50
2019-03-31T00:15:31.095Z,9.50
2019-03-31T00:18:00.444Z,9.50
2019-03-31T00:20:29.799Z,9.40
2019-03-31T00:22:59.752Z,9.40
2019-03-31T00:25:29.091Z,9.40
2019-03-31T00:27:58.455Z,9.30
2019-03-31T00:30:27.811Z,9.30
2019-03-31T00:32:57.149Z,9.30
2019-03-31T00:35:26.507Z,9.20
2019-03-31T00:37:55.905Z,9.20
2019-03-31T00:40:25.262Z,9.20
2019-03-31T00:42:54.615Z,9.10
2019-03-31T00:45:24.081Z,9.10
2019-03-31T00:47:53.440Z,9.00
2019-03-31T00:50:22.803Z,9.00
2019-03-31T00:52:52.195Z,9.00
2019-03-31T00:55:21.568Z,9.00
2019-03-31T00:57:50.902Z,8.90
2019-03-31T01:00:41.083Z,8.90
2019-03-31T01:03:10.759Z,8.80
2019-03-31T01:05:44.511Z,8.80
2019-03-31T01:08:14.369Z,8.80
2019-03-31T01:10:44.170Z,8.70
2019-03-31T01:13:14.478Z,8.70
2019-03-31T01:15:44.590Z,8.70
2019-03-31T01:18:15.149Z,8.70
2019-03-31T01:20:45.150Z,8.60
2019-03-31T01:23:14.532Z,8.60
2019-03-31T01:25:43.888Z,8.60
2019-03-31T01:28:13.387Z,8.50
2019-03-31T01:30:42.851Z,8.50
2019-03-31T01:33:14.148Z,8.50
2019-03-31T01:35:43.537Z,8.50
2019-03-31T01:38:13.113Z,8.40
2019-03-31T01:40:42.464Z,8.40
2019-03-31T01:43:11.906Z,8.40
2019-03-31T01:45:41.291Z,8.40
2019-03-31T01:48:10.652Z,8.30
2019-03-31T01:50:40.022Z,8.30
2019-03-31T01:53:09.433Z,8.30
2019-03-31T02:14:55.666Z,5.30
2019-03-31T02:17:25.026Z,5.50
2019-03-31T02:19:54.378Z,5.80
2019-03-31T02:22:23.749Z,6.10
2019-03-31T02:24:53.098Z,6.30
2019-03-31T02:27:22.466Z,6.50
2019-03-31T02:29:51.840Z,6.60
2019-03-31T02:32:24.024Z,6.70
2019-03-31T02:34:52.272Z,6.80
2019-03-31T02:37:22.041Z,6.90
2019-03-31T02:39:51.401Z,7.00
2019-03-31T02:42:20.757Z,7.00
2019-03-31T02:44:50.124Z,7.00
2019-03-31T02:47:19.489Z,7.10
2019-03-31T02:49:48.852Z,7.10
2019-03-31T02:52:18.266Z,7.10
2019-03-31T02:54:47.617Z,7.20
2019-03-31T02:57:19.069Z,7.20
2019-03-31T02:59:50.697Z,7.20
2019-03-31T03:02:40.630Z,7.20
2019-03-31T03:05:16.970Z,7.20
2019-03-31T03:07:32.111Z,7.20
2019-03-31T03:10:04.591Z,7.20
2019-03-31T03:12:37.423Z,7.20
2019-03-31T03:15:07.602Z,7.20
2019-03-31T03:17:37.357Z,7.20
2019-03-31T03:20:08.765Z,7.20
2019-03-31T03:22:38.115Z,7.20
2019-03-31T03:25:10.582Z,7.20
2019-03-31T03:27:39.951Z,7.20
2019-03-31T03:30:09.465Z,7.10
2019-03-31T03:32:39.293Z,7.10
2019-03-31T03:35:08.800Z,7.10
2019-03-31T03:37:38.151Z,7.20
2019-03-31T03:40:08.137Z,7.10
2019-03-31T03:42:37.532Z,7.10
2019-03-31T03:45:08.187Z,7.10
2019-03-31T03:47:37.588Z,7.10
2019-03-31T03:50:08.274Z,7.10
2019-03-31T03:52:37.652Z,7.10
2019-03-31T03:55:07.527Z,7.10
2019-03-31T03:57:36.896Z,7.00
2019-03-31T04:00:07.276Z,7.00
2019-03-31T04:02:36.658Z,7.00
2019-03-31T04:05:06.942Z,7.00
2019-03-31T04:07:36.293Z,7.00
2019-03-31T04:10:10.932Z,7.00
2019-03-31T04:12:40.300Z,6.90
2019-03-31T04:15:09.676Z,6.90
2019-03-31T04:17:39.034Z,6.90
2019-03-31T04:20:08.379Z,6.90
2019-03-31T04:22:38.068Z,6.90
2019-03-31T04:25:07.434Z,6.90
2019-03-31T04:27:36.795Z,6.90
2019-03-31T04:30:06.545Z,6.90
2019-03-31T04:32:38.769Z,6.80
2019-03-31T04:35:07.469Z,6.80
2019-03-31T04:37:36.834Z,6.80
2019-03-31T04:40:07.250Z,6.80
2019-03-31T04:42:36.589Z,6.80
2019-03-31T04:45:07.224Z,6.80
2019-03-31T04:47:36.637Z,6.70
2019-03-31T04:50:07.000Z,6.70
2019-03-31T04:52:36.360Z,6.70
2019-03-31T04:55:09.056Z,6.70
2019-03-31T04:57:38.419Z,6.70
2019-03-31T05:00:07.985Z,6.70
2019-03-31T05:02:37.396Z,6.70
2019-03-31T05:05:06.956Z,6.60
2019-03-31T05:07:36.321Z,6.70
2019-03-31T05:10:08.151Z,6.60
2019-03-31T05:12:37.521Z,6.60
2019-03-31T05:15:07.324Z,6.60
2019-03-31T05:17:37.103Z,6.60
2019-03-31T05:20:07.200Z,6.60
2019-03-31T05:22:36.555Z,6.60
2019-03-31T05:25:07.548Z,6.60
2019-03-31T05:27:36.941Z,6.50
2019-03-31T05:30:09.110Z,6.50
2019-03-31T05:32:38.872Z,6.50
2019-03-31T05:35:08.552Z,6.50
2019-03-31T05:37:50.203Z,6.50
2019-03-31T05:40:09.284Z,6.50
2019-03-31T05:42:38.704Z,6.50
2019-03-31T05:45:08.295Z,6.50
2019-03-31T05:47:37.696Z,6.50
2019-03-31T05:50:07.677Z,6.50
2019-03-31T05:52:37.037Z,6.50
2019-03-31T05:55:07.551Z,6.50
2019-03-31T05:57:36.913Z,6.50
2019-03-31T06:00:07.902Z,6.50
2019-03-31T06:02:37.277Z,6.60
2019-03-31T06:05:07.873Z,6.60
2019-03-31T06:07:37.245Z,6.60
2019-03-31T06:10:08.679Z,6.60
2019-03-31T06:12:38.040Z,6.60
2019-03-31T06:15:07.836Z,6.70
2019-03-31T06:17:37.232Z,6.70
2019-03-31T06:20:07.936Z,6.70
2019-03-31T06:22:37.304Z,6.80
2019-03-31T06:25:07.467Z,6.80
2019-03-31T06:27:37.458Z,6.80
2019-03-31T06:30:08.233Z,6.90
2019-03-31T06:32:37.623Z,6.90
2019-03-31T06:35:07.413Z,7.00
2019-03-31T06:37:36.763Z,7.00
2019-03-31T06:40:06.741Z,7.00
2019-03-31T06:42:36.095Z,7.10
2019-03-31T06:45:07.396Z,7.20
2019-03-31T06:47:36.811Z,7.20
2019-03-31T06:50:09.347Z,7.30
2019-03-31T06:52:38.726Z,7.30
2019-03-31T06:55:09.139Z,7.40
2019-03-31T06:57:38.569Z,7.50
2019-03-31T07:00:09.338Z,7.60
2019-03-31T07:02:38.719Z,7.70
2019-03-31T07:05:08.792Z,7.70
2019-03-31T07:07:38.165Z,7.80
2019-03-31T07:10:08.481Z,7.90
2019-03-31T07:12:37.995Z,8.00
2019-03-31T07:15:09.164Z,8.10
2019-03-31T07:17:39.028Z,8.20
2019-03-31T07:20:10.799Z,8.30
2019-03-31T07:22:40.285Z,8.40
2019-03-31T07:25:13.149Z,8.50
2019-03-31T07:27:42.561Z,8.70
2019-03-31T07:30:17.272Z,8.80
2019-03-31T07:32:46.728Z,8.90
2019-03-31T07:35:18.805Z,9.00
2019-03-31T07:37:48.007Z,9.20
2019-03-31T07:40:21.198Z,9.30
2019-03-31T07:42:51.200Z,9.50
2019-03-31T07:45:21.068Z,9.70
2019-03-31T07:47:50.917Z,9.80
2019-03-31T07:50:20.599Z,10.00
2019-03-31T07:52:50.033Z,10.10
2019-03-31T07:55:20.622Z,10.30
2019-03-31T07:57:49.991Z,10.50
2019-03-31T08:00:22.594Z,10.70
2019-03-31T08:02:51.995Z,10.80
2019-03-31T08:05:32.463Z,11.00
2019-03-31T08:07:52.551Z,11.20
2019-03-31T08:10:22.454Z,11.40
2019-03-31T08:12:51.823Z,11.60
2019-03-31T08:15:21.344Z,11.80
2019-03-31T08:17:50.779Z,12.00
2019-03-31T08:20:20.964Z,12.10
2019-03-31T08:22:50.332Z,12.30
2019-03-31T08:25:21.031Z,12.40
2019-03-31T08:27:50.419Z,12.60
2019-03-31T08:30:20.207Z,12.80
2019-03-31T08:32:50.440Z,12.90
2019-03-31T08:35:19.895Z,13.10
2019-03-31T08:37:49.267Z,13.20
2019-03-31T08:40:18.799Z,13.30
2019-03-31T08:42:48.158Z,13.40
2019-03-31T08:45:17.758Z,13.50
2019-03-31T08:47:47.191Z,13.60
2019-03-31T08:50:17.492Z,13.70
2019-03-31T08:52:46.849Z,13.80
2019-03-31T08:55:16.767Z,14.00
2019-03-31T08:57:46.128Z,14.10
2019-03-31T09:00:21.184Z,14.20
2019-03-31T09:02:51.042Z,14.40
2019-03-31T09:05:20.394Z,14.50
2019-03-31T09:07:49.746Z,14.70
2019-03-31T09:10:19.194Z,14.80
2019-03-31T09:12:48.941Z,14.90
2019-03-31T09:15:18.466Z,15.00
2019-03-31T09:17:47.858Z,15.10
2019-03-31T09:20:18.638Z,15.20
2019-03-31T09:22:48.022Z,15.30
2019-03-31T09:25:17.422Z,15.40
2019-03-31T09:27:46.787Z,15.50
2019-03-31T09:30:17.765Z,15.60
2019-03-31T09:32:47.131Z,15.70
2019-03-31T09:35:17.861Z,15.80
2019-03-31T09:37:47.227Z,15.80
2019-03-31T09:40:17.071Z,15.90
2019-03-31T09:42:46.434Z,16.00
2019-03-31T09:45:15.990Z,16.10
2019-03-31T09:47:45.700Z,16.20
2019-03-31T09:50:17.536Z,16.30
2019-03-31T09:52:47.186Z,16.40
2019-03-31T09:55:16.663Z,16.50
2019-03-31T09:57:46.032Z,16.50
2019-03-31T10:00:20.010Z,16.60
2019-03-31T10:02:49.434Z,16.70
2019-03-31T10:05:18.932Z,16.80
2019-03-31T10:07:48.451Z,16.90
2019-03-31T10:10:33.982Z,17.00
2019-03-31T10:13:03.348Z,17.10
2019-03-31T10:15:32.715Z,17.20
2019-03-31T10:18:02.758Z,17.20
2019-03-31T10:20:32.117Z,17.30
2019-03-31T10:23:01.479Z,17.40
2019-03-31T10:25:30.946Z,17.50
2019-03-31T10:28:00.307Z,17.60
2019-03-31T10:30:38.324Z,17.70
2019-03-31T10:33:08.836Z,17.70
2019-03-31T10:35:38.193Z,17.80
2019-03-31T10:38:09.444Z,17.90
2019-03-31T10:40:41.536Z,17.90
2019-03-31T10:43:10.903Z,18.00
2019-03-31T10:45:40.282Z,18.00
2019-03-31T10:48:20.196Z,18.00
2019-03-31T10:50:40.813Z,18.10
2019-03-31T10:53:13.658Z,18.00
2019-03-31T10:55:43.014Z,18.00
2019-03-31T10:58:12.368Z,18.00
2019-03-31T11:00:44.569Z,17.90
2019-03-31T11:03:12.925Z,17.90
2019-03-31T11:05:42.434Z,17.90
2019-03-31T11:08:11.807Z,17.80
2019-03-31T11:10:41.193Z,17.80
2019-03-31T11:13:10.576Z,17.70
2019-03-31T11:15:40.049Z,17.60
2019-03-31T11:18:09.415Z,17.60
2019-03-31T11:20:38.794Z,17.50
2019-03-31T11:23:21.871Z,17.40
2019-03-31T11:25:51.220Z,17.30
2019-03-31T11:28:20.589Z,17.30
2019-03-31T11:30:50.661Z,17.20
2019-03-31T11:33:20.012Z,17.10
2019-03-31T11:35:49.393Z,17.00
2019-03-31T11:38:18.793Z,16.90
2019-03-31T11:40:49.182Z,16.80
2019-03-31T11:43:18.568Z,16.80
2019-03-31T11:45:48.072Z,16.70
2019-03-31T11:48:17.441Z,16.70
2019-03-31T11:50:46.806Z,16.70
2019-03-31T11:53:17.050Z,16.60
2019-03-31T11:55:46.421Z,16.60
2019-03-31T11:58:15.817Z,16.60
2019-03-31T12:00:53.105Z,16.60
2019-03-31T12:03:22.477Z,16.50
2019-03-31T12:05:51.928Z,16.40
2019-03-31T12:08:21.814Z,16.40
2019-03-31T12:10:51.199Z,16.30
2019-03-31T12:13:20.569Z,16.30
2019-03-31T12:15:49.963Z,16.30
2019-03-31T12:18:19.344Z,16.20
2019-03-31T12:20:48.728Z,16.20
2019-03-31T12:23:18.118Z,16.10
2019-03-31T12:25:47.551Z,16.00
2019-03-31T12:28:16.956Z,16.00
2019-03-31T12:30:46.732Z,16.00
2019-03-31T12:33:16.119Z,15.90
2019-03-31T12:35:45.498Z,15.90
2019-03-31T12:38:14.932Z,15.90
2019-03-31T12:40:44.307Z,15.80
2019-03-31T12:43:14.149Z,15.80
2019-03-31T12:45:43.629Z,15.70
2019-03-31T12:48:12.988Z,15.70
2019-03-31T12:50:42.374Z,15.70
2019-03-31T12:53:12.302Z,15.60
2019-03-31T12:55:41.663Z,15.60
2019-03-31T12:58:11.030Z,15.60
2019-03-31T13:00:40.417Z,15.60
2019-03-31T13:03:09.777Z,15.50
2019-03-31T13:05:39.148Z,15.50
2019-03-31T13:08:08.555Z,15.40
2019-03-31T13:10:37.948Z,15.40
2019-03-31T13:13:07.449Z,15.40
2019-03-31T13:15:36.890Z,15.30
2019-03-31T13:18:06.408Z,15.30
2019-03-31T13:20:35.765Z,15.30
2019-03-31T13:23:05.217Z,15.20
2019-03-31T13:25:34.578Z,15.20
2019-03-31T13:28:05.687Z,15.20
2019-03-31T13:30:35.189Z,15.10
2019-03-31T13:33:04.551Z,15.10
2019-03-31T13:35:33.916Z,15.10
2019-03-31T13:38:10.785Z,15.10
2019-03-31T13:40:34.521Z,15.10
2019-03-31T13:43:03.952Z,15.10
2019-03-31T13:45:33.972Z,15.00
2019-03-31T13:48:03.378Z,15.00
2019-03-31T13:50:33.508Z,15.00
2019-03-31T13:53:03.150Z,15.00
2019-03-31T13:55:32.496Z,15.00
2019-03-31T13:58:03.227Z,14.90
2019-03-31T14:00:40.750Z,14.90
2019-03-31T14:03:10.467Z,14.90
2019-03-31T14:05:39.840Z,14.90
2019-03-31T14:08:09.331Z,14.90
2019-03-31T14:10:38.710Z,14.90
2019-03-31T14:13:08.085Z,14.90
2019-03-31T14:15:37.474Z,14.90
2019-03-31T14:18:06.857Z,14.90
2019-03-31T14:20:36.214Z,14.90
2019-03-31T14:23:06.045Z,15.00
2019-03-31T14:25:35.405Z,15.00
2019-03-31T14:28:04.776Z,15.00
2019-03-31T14:30:34.159Z,15.00
2019-03-31T14:33:03.529Z,15.10
2019-03-31T14:35:32.884Z,15.10
2019-03-31T14:38:02.389Z,15.10
2019-03-31T14:40:31.740Z,15.10
2019-03-31T14:43:01.123Z,15.20
2019-03-31T14:45:33.605Z,15.20
2019-03-31T14:48:03.382Z,15.20
2019-03-31T14:50:35.836Z,15.30
2019-03-31T14:53:05.788Z,15.30
2019-03-31T14:55:35.285Z,15.30
2019-03-31T14:58:07.780Z,15.40
2019-03-31T15:00:36.917Z,15.40
2019-03-31T15:03:06.528Z,15.50
2019-03-31T15:05:35.889Z,15.50
2019-03-31T15:08:05.604Z,15.60
2019-03-31T15:10:35.197Z,15.60
2019-03-31T15:13:04.625Z,15.70
2019-03-31T15:15:34.113Z,15.70
2019-03-31T15:18:03.604Z,15.70
2019-03-31T15:20:32.968Z,15.70
2019-03-31T15:23:02.680Z,15.70
2019-03-31T15:25:32.033Z,15.70
2019-03-31T15:28:01.486Z,15.70
2019-03-31T15:30:30.933Z,15.70
2019-03-31T15:33:00.319Z,15.70
2019-03-31T15:35:29.701Z,15.80
2019-03-31T15:37:59.089Z,15.80
2019-03-31T15:40:28.455Z,15.80
2019-03-31T15:42:57.828Z,15.80
2019-03-31T15:45:27.699Z,15.80
2019-03-31T15:47:57.085Z,15.80
2019-03-31T15:50:27.179Z,15.80
2019-03-31T15:52:56.568Z,15.80
2019-03-31T15:55:25.957Z,15.80
2019-03-31T15:57:55.329Z,15.80
2019-03-31T16:00:24.723Z,15.80
2019-03-31T16:02:54.092Z,15.80
2019-03-31T16:05:23.465Z,15.80
2019-03-31T16:07:52.975Z,15.80
2019-03-31T16:10:22.344Z,15.70
2019-03-31T16:12:51.753Z,15.70
2019-03-31T16:15:21.272Z,15.70
2019-03-31T16:17:50.663Z,15.70
2019-03-31T16:20:22.771Z,15.70
2019-03-31T16:22:52.200Z,15.60
2019-03-31T16:25:26.147Z,15.60
2019-03-31T16:27:55.901Z,15.60
2019-03-31T16:30:25.400Z,15.60
2019-03-31T16:32:54.767Z,15.60
2019-03-31T16:35:24.125Z,15.50
2019-03-31T16:37:53.559Z,15.50
2019-03-31T16:40:22.904Z,15.50
2019-03-31T16:42:52.257Z,15.50
2019-03-31T16:45:21.672Z,15.50
2019-03-31T16:47:51.029Z,15.50
2019-03-31T16:50:20.385Z,15.50
2019-03-31T16:52:52.825Z,15.50
2019-03-31T16:55:22.377Z,15.40
2019-03-31T16:57:51.739Z,15.40
2019-03-31T17:00:21.785Z,15.30
2019-03-31T17:02:51.152Z,15.30
2019-03-31T17:05:22.295Z,15.20
2019-03-31T17:07:51.613Z,15.20
2019-03-31T17:10:20.971Z,15.20
2019-03-31T17:12:50.350Z,15.20
2019-03-31T17:15:19.771Z,15.20
2019-03-31T17:17:49.128Z,15.10
2019-03-31T17:20:18.650Z,15.10
2019-03-31T17:22:48.105Z,15.00
2019-03-31T17:25:17.490Z,15.00
2019-03-31T17:27:46.852Z,14.90
2019-03-31T17:30:16.460Z,14.90
2019-03-31T17:32:45.820Z,14.80
2019-03-31T17:35:16.736Z,14.70
2019-03-31T17:37:46.243Z,14.70
2019-03-31T17:40:15.612Z,14.60
2019-03-31T17:42:44.981Z,14.60
2019-03-31T17:45:17.209Z,14.50
2019-03-31T17:47:45.658Z,14.50
2019-03-31T17:50:15.092Z,14.40
2019-03-31T17:52:44.477Z,14.40
2019-03-31T17:55:14.171Z,14.30
2019-03-31T17:57:43.537Z,14.30
2019-03-31T18:00:13.783Z,14.20
2019-03-31T18:02:43.322Z,14.10
2019-03-31T18:05:12.747Z,14.10
2019-03-31T18:07:42.151Z,14.00
2019-03-31T18:10:20.816Z,13.90
2019-03-31T18:12:50.465Z,13.80
2019-03-31T18:15:19.935Z,13.80
2019-03-31T18:17:49.315Z,13.70
2019-03-31T18:20:18.671Z,13.70
2019-03-31T18:22:48.053Z,13.60
2019-03-31T18:25:17.420Z,13.60
2019-03-31T18:27:46.796Z,13.50
2019-03-31T18:30:17.524Z,13.40
2019-03-31T18:32:46.887Z,13.40
2019-03-31T18:35:16.879Z,13.40
2019-03-31T18:37:47.206Z,13.30
2019-03-31T18:40:16.529Z,13.30
2019-03-31T18:42:45.898Z,13.20
2019-03-31T18:45:15.344Z,13.20
2019-03-31T18:47:44.699Z,13.20
2019-03-31T18:50:19.811Z,13.10
2019-03-31T18:52:49.266Z,13.10
2019-03-31T18:55:23.089Z,13.00
2019-03-31T18:58:03.864Z,13.00
2019-03-31T19:00:37.721Z,12.90
2019-03-31T19:03:17.498Z,12.90
2019-03-31T19:05:54.412Z,12.80
2019-03-31T19:08:31.615Z,12.80
2019-03-31T19:11:02.620Z,12.80
2019-03-31T19:13:33.615Z,12.70
2019-03-31T19:16:19.365Z,12.70
2019-03-31T19:19:05.212Z,12.60
2019-03-31T19:21:36.267Z,12.50
2019-03-31T19:24:12.768Z,12.50
2019-03-31T19:26:50.225Z,12.50
2019-03-31T19:29:23.937Z,12.40
2019-03-31T19:32:00.658Z,12.40
2019-03-31T19:34:34.357Z,12.40
2019-03-31T19:37:08.042Z,12.30
2019-03-31T19:39:55.587Z,12.30
2019-03-31T19:42:42.933Z,12.30
2019-03-31T19:45:14.004Z,12.20
2019-03-31T19:48:00.265Z,12.20
2019-03-31T19:50:33.957Z,12.20
2019-03-31T19:53:20.673Z,12.10
2019-03-31T19:55:51.722Z,12.10
2019-03-31T19:58:22.704Z,12.10
2019-03-31T20:01:04.109Z,12.00
2019-03-31T20:03:38.330Z,12.00
2019-03-31T20:06:18.248Z,11.90
2019-03-31T20:09:03.931Z,11.90
2019-03-31T20:11:37.655Z,11.80
2019-03-31T20:14:17.543Z,11.80
2019-03-31T20:16:49.220Z,11.80
2019-03-31T20:19:23.177Z,11.80
2019-03-31T20:21:54.177Z,11.70
2019-03-31T20:24:28.345Z,11.70
2019-03-31T20:26:59.338Z,11.70
2019-03-31T20:29:30.349Z,11.70
2019-03-31T20:32:13.656Z,11.60
2019-03-31T20:34:44.646Z,11.60
2019-03-31T20:37:18.598Z,11.60
2019-03-31T20:40:04.644Z,11.50
2019-03-31T20:42:35.635Z,11.50
2019-03-31T20:45:08.159Z,11.50
2019-03-31T20:47:38.280Z,11.40
2019-03-31T20:50:07.877Z,11.40
2019-03-31T20:52:37.231Z,11.40
2019-03-31T20:55:16.299Z,11.40
2019-03-31T20:57:38.109Z,11.40
2019-03-31T21:00:11.838Z,11.30
2019-03-31T21:02:42.284Z,11.30
2019-03-31T21:05:11.703Z,11.30
2019-03-31T21:07:41.050Z,11.30
2019-03-31T21:10:10.655Z,11.30
2019-03-31T21:12:40.013Z,11.20
2019-03-31T21:15:09.597Z,11.20
2019-03-31T21:17:39.002Z,11.20
2019-03-31T21:20:08.515Z,11.10
2019-03-31T21:22:37.862Z,11.10
2019-03-31T21:25:08.560Z,11.10
2019-03-31T21:27:37.914Z,11.00
2019-03-31T21:30:07.904Z,11.00
2019-03-31T21:32:37.273Z,11.00
2019-03-31T21:35:07.763Z,10.90
2019-03-31T21:37:37.124Z,10.90
2019-03-31T21:40:07.933Z,10.90
2019-03-31T21:42:37.281Z,10.80
2019-03-31T21:45:07.072Z,10.80
2019-03-31T21:47:36.466Z,10.80
2019-03-31T21:50:08.322Z,10.70
2019-03-31T21:52:37.716Z,10.70
2019-03-31T21:55:07.627Z,10.70
2019-03-31T21:57:36.976Z,10.60
2019-03-31T22:00:10.590Z,10.60
2019-03-31T22:02:40.503Z,10.50
2019-03-31T22:05:11.034Z,10.50
2019-03-31T22:07:40.380Z,10.40
2019-03-31T22:10:10.466Z,10.40
2019-03-31T22:12:39.825Z,10.40
2019-03-31T22:15:09.417Z,10.40
2019-03-31T22:17:38.801Z,10.30
2019-03-31T22:20:09.062Z,10.30
2019-03-31T22:22:38.407Z,10.20
2019-03-31T22:25:08.242Z,10.20
2019-03-31T22:27:37.605Z,10.20
2019-03-31T22:30:08.254Z,10.10
2019-03-31T22:32:37.620Z,10.10
2019-03-31T22:35:07.353Z,10.10
2019-03-31T22:37:36.707Z,10.00
2019-03-31T22:40:07.396Z,10.00
2019-03-31T22:42:36.743Z,10.00
2019-03-31T22:45:07.392Z,9.90
2019-03-31T22:47:37.145Z,9.90
2019-03-31T22:50:07.412Z,9.90
2019-03-31T22:52:36.762Z,9.80
2019-03-31T22:55:07.641Z,9.80
2019-03-31T22:57:37.482Z,9.70
2019-03-31T23:00:09.081Z,9.70
2019-03-31T23:02:38.487Z,9.70
2019-03-31T23:05:08.279Z,9.70
2019-03-31T23:07:39.025Z,9.70
2019-03-31T23:10:08.552Z,9.60
2019-03-31T23:12:37.902Z,9.60
2019-03-31T23:15:08.255Z,9.60
2019-03-31T23:17:37.631Z,9.50
2019-03-31T23:20:07.231Z,9.50
2019-03-31T23:22:36.575Z,9.50
2019-03-31T23:25:07.843Z,9.40
2019-03-31T23:27:37.198Z,9.40
2019-03-31T23:30:10.315Z,9.40
2019-03-31T23:32:39.713Z,9.30
2019-03-31T23:35:09.313Z,9.30
2019-03-31T23:37:38.667Z,9.30
2019-03-31T23:40:08.576Z,9.20
2019-03-31T23:42:37.920Z,9.20
2019-03-31T23:45:07.973Z,9.20
2019-03-31T23:47:37.409Z,9.20
2019-03-31T23:50:07.293Z,9.10
2019-03-31T23:52:36.623Z,9.10
2019-03-31T23:55:06.483Z,9.10
2019-03-31T23:57:44.757Z,9.00
